createdAt,value
2022-12-22T00:00:32.214Z,3.77
2022-12-22T00:01:54.367Z,4.20
2022-12-22T00:03:15.059Z,5.33
2022-12-22T00:04:35.434Z,3.60
2022-12-22T00:05:55.720Z,3.67
2022-12-22T00:07:15.981Z,3.60
2022-12-22T00:08:36.616Z,3.60
2022-12-22T00:09:56.924Z,3.70
2022-12-22T00:11:19.058Z,3.70
2022-12-22T00:12:39.901Z,3.60
2022-12-22T00:14:02.658Z,3.30
2022-12-22T00:15:24.392Z,3.30
2022-12-22T00:16:55.915Z,3.73
2022-12-22T00:18:16.274Z,3.17
2022-12-22T00:19:37.308Z,3.67
2022-12-22T00:20:57.475Z,3.87
2022-12-22T00:22:28.443Z,3.10
2022-12-22T00:23:48.761Z,3.80
2022-12-22T00:25:08.918Z,2.90
2022-12-22T00:26:29.780Z,3.60
2022-12-22T00:27:50.940Z,2.90
2022-12-22T00:29:12.256Z,3.70
2022-12-22T00:30:34.266Z,3.33
2022-12-22T00:31:54.616Z,3.67
2022-12-22T00:33:15.027Z,3.10
2022-12-22T00:34:39.111Z,3.63
2022-12-22T00:35:59.634Z,3.60
2022-12-22T00:37:20.123Z,3.83
2022-12-22T00:38:40.513Z,4.07
2022-12-22T00:40:01.128Z,3.70
2022-12-22T00:41:21.637Z,3.60
2022-12-22T00:42:42.050Z,3.87
2022-12-22T00:44:02.600Z,3.50
2022-12-22T00:45:23.315Z,3.50
2022-12-22T00:46:43.634Z,3.57
2022-12-22T00:48:04.748Z,3.47
2022-12-22T00:49:25.021Z,3.90
2022-12-22T00:50:51.857Z,3.40
2022-12-22T00:52:12.156Z,3.63
2022-12-22T00:53:32.724Z,3.20
2022-12-22T00:54:53.220Z,3.27
2022-12-22T00:56:13.787Z,3.30
2022-12-22T00:57:38.332Z,3.40
2022-12-22T00:58:58.633Z,3.60
2022-12-22T01:00:19.143Z,3.30
2022-12-22T01:01:39.542Z,3.20
2022-12-22T01:03:00.015Z,3.30
2022-12-22T01:04:20.636Z,3.20
2022-12-22T01:05:41.123Z,2.97
2022-12-22T01:07:02.123Z,3.47
2022-12-22T01:08:22.572Z,2.50
2022-12-22T01:09:42.799Z,2.93
2022-12-22T01:11:03.424Z,2.97
2022-12-22T01:12:38.194Z,3.23
2022-12-22T01:13:58.799Z,3.10
2022-12-22T01:15:19.965Z,3.33
2022-12-22T01:16:40.634Z,3.13
2022-12-22T01:18:01.167Z,3.47
2022-12-22T01:19:21.279Z,3.47
2022-12-22T01:20:41.863Z,3.43
2022-12-22T01:22:02.442Z,3.97
2022-12-22T01:23:29.043Z,3.50
2022-12-22T01:24:49.986Z,3.33
2022-12-22T01:26:10.505Z,3.47
2022-12-22T01:27:31.096Z,3.70
2022-12-22T01:28:51.353Z,3.50
2022-12-22T01:30:11.935Z,3.53
2022-12-22T01:31:37.066Z,3.50
2022-12-22T01:32:57.584Z,4.07
2022-12-22T01:34:17.888Z,3.50
2022-12-22T01:35:44.303Z,3.40
2022-12-22T01:37:04.491Z,3.83
2022-12-22T01:38:25.185Z,3.00
2022-12-22T01:39:45.398Z,3.40
2022-12-22T01:41:06.019Z,3.30
2022-12-22T01:42:30.452Z,3.50
2022-12-22T01:43:52.856Z,3.10
2022-12-22T01:45:13.562Z,5.30
2022-12-22T01:46:45.290Z,4.23
2022-12-22T01:48:05.859Z,3.17
2022-12-22T01:49:29.745Z,3.47
2022-12-22T01:50:54.287Z,3.23
2022-12-22T01:52:14.988Z,3.43
2022-12-22T01:53:39.578Z,3.57
2022-12-22T01:55:01.084Z,3.73
2022-12-22T01:56:21.765Z,3.70
2022-12-22T01:57:42.132Z,3.70
2022-12-22T01:59:05.673Z,3.43
2022-12-22T02:00:27.025Z,3.57
2022-12-22T02:01:49.738Z,3.00
2022-12-22T02:03:10.150Z,3.00
2022-12-22T02:04:30.981Z,2.80
2022-12-22T02:05:58.707Z,2.63
2022-12-22T02:07:27.657Z,2.47
2022-12-22T02:08:52.834Z,2.50
2022-12-22T02:10:41.143Z,2.70
2022-12-22T02:12:29.856Z,2.33
2022-12-22T02:14:04.149Z,2.40
2022-12-22T02:16:08.779Z,2.40
2022-12-22T02:17:44.068Z,1.80
2022-12-22T02:19:12.768Z,2.17
2022-12-22T02:20:58.891Z,2.27
2022-12-22T02:22:40.414Z,2.20
2022-12-22T02:24:39.587Z,2.10
2022-12-22T02:26:39.581Z,2.60
2022-12-22T02:28:01.105Z,2.75
2022-12-22T02:29:23.400Z,2.17
2022-12-22T02:30:45.294Z,2.37
2022-12-22T02:32:07.015Z,2.37
2022-12-22T02:33:28.129Z,2.50
2022-12-22T02:34:48.709Z,2.00
2022-12-22T02:36:37.030Z,1.70
2022-12-22T02:38:05.844Z,1.87
2022-12-22T02:39:33.192Z,1.97
2022-12-22T02:41:02.607Z,2.00
2022-12-22T02:42:56.734Z,1.90
2022-12-22T02:44:46.881Z,1.90
2022-12-22T02:46:07.224Z,1.80
2022-12-22T02:47:39.250Z,1.77
2022-12-22T02:49:23.417Z,1.87
2022-12-22T02:51:17.161Z,1.53
2022-12-22T02:52:45.633Z,1.67
2022-12-22T02:54:06.387Z,1.80
2022-12-22T02:55:27.700Z,1.57
2022-12-22T02:56:48.256Z,1.57
2022-12-22T02:58:12.259Z,1.80
2022-12-22T02:59:32.806Z,1.70
2022-12-22T03:00:53.692Z,1.40
2022-12-22T03:02:15.200Z,1.50
2022-12-22T03:03:36.044Z,1.40
2022-12-22T03:04:56.891Z,1.50
2022-12-22T03:06:17.174Z,1.20
2022-12-22T03:07:37.610Z,1.20
2022-12-22T03:08:57.944Z,2.77
2022-12-22T03:10:18.227Z,7.70
2022-12-22T03:11:38.652Z,2.37
2022-12-22T03:12:59.398Z,1.97
2022-12-22T03:14:19.958Z,1.40
2022-12-22T03:15:40.627Z,1.50
2022-12-22T03:17:00.963Z,1.38
2022-12-22T03:18:26.919Z,1.30
2022-12-22T03:19:48.205Z,2.07
2022-12-22T03:21:08.871Z,1.37
2022-12-22T03:22:29.037Z,2.63
2022-12-22T03:23:49.508Z,1.77
2022-12-22T03:25:09.789Z,1.50
2022-12-22T03:26:11.751Z,1.47
2022-12-22T03:27:13.560Z,1.50
2022-12-22T03:28:15.320Z,1.47
2022-12-22T03:29:17.150Z,1.40
2022-12-22T03:30:19.132Z,1.20
2022-12-22T03:31:20.877Z,1.17
2022-12-22T03:32:22.656Z,1.50
2022-12-22T03:33:25.236Z,1.20
2022-12-22T03:34:26.989Z,1.33
2022-12-22T03:35:28.834Z,1.20
2022-12-22T03:36:30.574Z,1.50
2022-12-22T03:37:32.273Z,1.20
2022-12-22T03:38:34.134Z,1.40
2022-12-22T03:39:36.254Z,1.30
2022-12-22T03:40:38.159Z,1.40
2022-12-22T03:41:58.676Z,1.20
2022-12-22T03:43:18.939Z,1.53
2022-12-22T03:44:39.489Z,1.50
2022-12-22T03:46:00.310Z,1.50
2022-12-22T03:47:03.980Z,1.60
2022-12-22T03:48:08.051Z,1.70
2022-12-22T03:49:13.579Z,1.43
2022-12-22T03:50:16.383Z,1.60
2022-12-22T03:51:18.097Z,1.40
2022-12-22T03:52:19.829Z,1.40
2022-12-22T03:53:21.577Z,1.47
2022-12-22T03:54:26.059Z,1.45
2022-12-22T03:55:28.450Z,1.40
2022-12-22T03:56:30.447Z,1.37
2022-12-22T03:57:32.221Z,1.37
2022-12-22T03:58:34.026Z,1.35
2022-12-22T03:59:35.839Z,1.23
2022-12-22T04:00:37.596Z,1.37
2022-12-22T04:01:42.406Z,1.80
2022-12-22T04:02:44.501Z,1.20
2022-12-22T04:03:46.409Z,1.33
2022-12-22T04:04:48.259Z,1.40
2022-12-22T04:05:49.927Z,1.25
2022-12-22T04:06:52.187Z,1.50
2022-12-22T04:07:53.889Z,1.50
2022-12-22T04:08:55.707Z,1.27
2022-12-22T04:10:16.211Z,1.20
2022-12-22T04:11:37.274Z,1.90
2022-12-22T04:12:57.216Z,2.57
2022-12-22T04:13:59.004Z,3.17
2022-12-22T04:15:00.699Z,2.17
2022-12-22T04:16:02.530Z,2.70
2022-12-22T04:17:05.714Z,2.50
2022-12-22T04:18:07.492Z,1.53
2022-12-22T04:19:10.012Z,1.77
2022-12-22T04:20:12.157Z,1.83
2022-12-22T04:21:14.038Z,2.08
2022-12-22T04:22:15.826Z,2.35
2022-12-22T04:23:17.679Z,2.63
2022-12-22T04:24:19.362Z,2.10
2022-12-22T04:25:21.713Z,2.42
2022-12-22T04:26:25.029Z,7.23
2022-12-22T04:27:26.748Z,11.17
2022-12-22T04:28:28.505Z,9.00
2022-12-22T04:29:30.268Z,4.93
2022-12-22T04:30:31.961Z,7.33
2022-12-22T04:31:33.691Z,6.00
2022-12-22T04:32:35.565Z,3.27
2022-12-22T04:33:37.399Z,3.60
2022-12-22T04:34:39.101Z,3.30
2022-12-22T04:35:40.773Z,1.90
2022-12-22T04:36:42.578Z,3.63
2022-12-22T04:37:44.372Z,1.97
2022-12-22T04:38:46.320Z,2.63
2022-12-22T04:39:48.035Z,2.77
2022-12-22T04:40:49.752Z,2.83
2022-12-22T04:41:51.428Z,2.33
2022-12-22T04:42:53.237Z,2.07
2022-12-22T04:43:55.017Z,2.27
2022-12-22T04:44:56.809Z,1.93
2022-12-22T04:45:58.846Z,2.63
2022-12-22T04:47:00.630Z,2.10
2022-12-22T04:48:02.311Z,2.08
2022-12-22T04:49:04.032Z,1.83
2022-12-22T04:50:06.458Z,1.80
2022-12-22T04:51:08.488Z,2.13
2022-12-22T04:52:10.696Z,2.43
2022-12-22T04:53:12.570Z,2.50
2022-12-22T04:54:14.390Z,2.10
2022-12-22T04:55:16.341Z,2.57
2022-12-22T04:56:18.094Z,2.00
2022-12-22T04:57:21.374Z,2.03
2022-12-22T04:58:23.188Z,1.50
2022-12-22T04:59:25.015Z,1.73
2022-12-22T05:00:26.803Z,1.60
2022-12-22T05:01:28.628Z,2.00
2022-12-22T05:02:30.558Z,1.70
2022-12-22T05:03:32.419Z,1.50
2022-12-22T05:04:34.159Z,1.70
2022-12-22T05:05:37.057Z,1.70
2022-12-22T05:06:38.777Z,1.50
2022-12-22T05:07:40.607Z,1.63
2022-12-22T05:08:42.498Z,1.45
2022-12-22T05:09:44.256Z,1.30
2022-12-22T05:10:45.982Z,1.13
2022-12-22T05:11:47.695Z,1.30
2022-12-22T05:12:55.169Z,1.10
2022-12-22T05:14:00.821Z,1.10
2022-12-22T05:15:05.707Z,1.10
2022-12-22T05:16:10.218Z,1.30
2022-12-22T05:17:12.061Z,1.00
2022-12-22T05:18:13.930Z,0.90
2022-12-22T05:19:15.699Z,1.10
2022-12-22T05:20:17.886Z,1.00
2022-12-22T05:21:22.226Z,0.80
2022-12-22T05:22:23.920Z,1.10
2022-12-22T05:23:25.818Z,1.30
2022-12-22T05:24:27.557Z,1.00
2022-12-22T05:25:34.737Z,1.00
2022-12-22T05:26:37.198Z,1.27
2022-12-22T05:27:39.023Z,1.20
2022-12-22T05:28:41.780Z,1.97
2022-12-22T05:29:43.576Z,1.30
2022-12-22T05:30:45.389Z,0.97
2022-12-22T05:31:47.640Z,1.25
2022-12-22T05:32:49.786Z,1.20
2022-12-22T05:33:51.960Z,3.43
2022-12-22T05:34:53.866Z,1.90
2022-12-22T05:35:55.634Z,1.17
2022-12-22T05:36:57.397Z,1.10
2022-12-22T05:37:59.206Z,1.40
2022-12-22T05:39:01.024Z,1.10
2022-12-22T05:40:03.514Z,1.15
2022-12-22T05:41:05.448Z,1.35
2022-12-22T05:42:07.157Z,1.00
2022-12-22T05:43:10.206Z,1.27
2022-12-22T05:44:11.987Z,0.90
2022-12-22T05:45:18.914Z,1.50
2022-12-22T05:46:20.789Z,1.45
2022-12-22T05:47:22.541Z,1.02
2022-12-22T05:48:29.561Z,1.00
2022-12-22T05:49:34.036Z,1.15
2022-12-22T05:50:35.770Z,1.17
2022-12-22T05:51:37.508Z,1.05
2022-12-22T05:52:39.527Z,1.20
2022-12-22T05:53:41.530Z,1.20
2022-12-22T05:54:43.245Z,1.20
2022-12-22T05:55:44.972Z,1.10
2022-12-22T05:56:46.699Z,1.10
2022-12-22T05:57:48.484Z,1.10
2022-12-22T05:58:50.188Z,1.30
2022-12-22T05:59:51.943Z,1.27
2022-12-22T06:00:57.219Z,1.60
2022-12-22T06:01:58.945Z,1.48
2022-12-22T06:03:00.838Z,1.27
2022-12-22T06:04:02.971Z,1.58
2022-12-22T06:05:05.917Z,1.10
2022-12-22T06:06:07.759Z,1.30
2022-12-22T06:07:09.568Z,1.33
2022-12-22T06:08:11.260Z,1.00
2022-12-22T06:09:12.929Z,1.20
2022-12-22T06:10:15.539Z,1.30
2022-12-22T06:11:18.385Z,1.10
2022-12-22T06:12:20.205Z,1.23
2022-12-22T06:13:22.330Z,1.23
2022-12-22T06:14:24.040Z,1.35
2022-12-22T06:15:25.719Z,1.33
2022-12-22T06:16:27.540Z,1.33
2022-12-22T06:17:29.298Z,1.47
2022-12-22T06:18:31.024Z,1.48
2022-12-22T06:19:32.775Z,1.38
2022-12-22T06:20:34.630Z,1.20
2022-12-22T06:21:36.429Z,1.40
2022-12-22T06:22:38.191Z,1.43
2022-12-22T06:23:39.903Z,1.48
2022-12-22T06:24:41.821Z,1.40
2022-12-22T06:25:43.663Z,1.58
2022-12-22T06:26:45.358Z,1.90
2022-12-22T06:27:47.788Z,1.30
2022-12-22T06:28:49.522Z,1.50
2022-12-22T06:29:51.356Z,1.50
2022-12-22T06:30:54.610Z,1.40
2022-12-22T06:31:56.422Z,1.80
2022-12-22T06:32:59.557Z,2.03
2022-12-22T06:34:01.293Z,2.03
2022-12-22T06:35:03.819Z,1.83
2022-12-22T06:36:09.234Z,2.00
2022-12-22T06:37:11.034Z,1.60
2022-12-22T06:38:13.087Z,1.63
2022-12-22T06:39:16.269Z,1.50
2022-12-22T06:40:18.185Z,1.90
2022-12-22T06:41:39.924Z,1.77
2022-12-22T06:43:06.033Z,1.92
2022-12-22T06:44:10.317Z,1.90
2022-12-22T06:45:12.122Z,1.57
2022-12-22T06:46:13.965Z,2.07
2022-12-22T06:47:15.731Z,1.70
2022-12-22T06:48:17.432Z,1.90
2022-12-22T06:49:19.794Z,1.63
2022-12-22T06:50:21.496Z,1.80
2022-12-22T06:51:23.214Z,1.90
2022-12-22T06:52:25.191Z,1.77
2022-12-22T06:53:27.360Z,1.63
2022-12-22T06:54:29.080Z,1.93
2022-12-22T06:55:30.967Z,1.95
2022-12-22T06:56:33.234Z,1.90
2022-12-22T06:57:35.002Z,1.90
2022-12-22T06:58:36.746Z,3.97
2022-12-22T06:59:38.438Z,5.80
2022-12-22T07:00:40.188Z,5.63
2022-12-22T07:01:42.888Z,2.87
2022-12-22T07:02:45.069Z,2.60
2022-12-22T07:03:47.042Z,2.50
2022-12-22T07:04:48.790Z,2.67
2022-12-22T07:05:50.448Z,8.07
2022-12-22T07:06:52.191Z,3.73
2022-12-22T07:07:54.052Z,3.13
2022-12-22T07:08:55.813Z,3.07
2022-12-22T07:09:57.585Z,3.00
2022-12-22T07:10:59.343Z,2.80
2022-12-22T07:12:01.039Z,3.17
2022-12-22T07:13:19.274Z,2.60
2022-12-22T07:14:21.741Z,2.67
2022-12-22T07:15:23.523Z,2.50
2022-12-22T07:16:25.285Z,2.40
2022-12-22T07:17:27.019Z,2.22
2022-12-22T07:18:33.510Z,2.27
2022-12-22T07:19:35.512Z,2.17
2022-12-22T07:20:37.335Z,1.83
2022-12-22T07:21:39.487Z,2.10
2022-12-22T07:22:41.220Z,2.07
2022-12-22T07:23:43.091Z,3.07
2022-12-22T07:24:44.873Z,2.42
2022-12-22T07:25:46.613Z,2.43
2022-12-22T07:26:48.481Z,2.47
2022-12-22T07:27:50.241Z,2.67
2022-12-22T07:28:51.973Z,2.00
2022-12-22T07:29:53.757Z,2.53
2022-12-22T07:30:55.969Z,3.33
2022-12-22T07:31:57.912Z,3.87
2022-12-22T07:32:59.739Z,4.77
2022-12-22T07:34:01.513Z,2.60
2022-12-22T07:35:05.954Z,3.00
2022-12-22T07:36:15.268Z,2.83
2022-12-22T07:37:16.958Z,2.67
2022-12-22T07:38:18.749Z,2.33
2022-12-22T07:39:20.547Z,3.10
2022-12-22T07:40:22.399Z,2.40
2022-12-22T07:41:42.723Z,2.40
2022-12-22T07:42:44.470Z,2.87
2022-12-22T07:43:46.232Z,2.60
2022-12-22T07:44:47.926Z,2.27
2022-12-22T07:45:49.662Z,2.80
2022-12-22T07:46:51.559Z,2.53
2022-12-22T07:47:59.506Z,2.20
2022-12-22T07:49:19.603Z,2.27
2022-12-22T07:50:32.487Z,2.00
2022-12-22T07:51:35.457Z,2.50
2022-12-22T07:52:37.173Z,2.63
2022-12-22T07:53:40.216Z,2.20
2022-12-22T07:54:42.446Z,2.70
2022-12-22T07:55:45.691Z,2.07
2022-12-22T07:56:47.912Z,2.10
2022-12-22T07:57:49.840Z,2.47
2022-12-22T07:58:51.622Z,2.30
2022-12-22T07:59:53.924Z,1.80
2022-12-22T08:01:02.067Z,2.70
2022-12-22T08:02:03.909Z,2.43
2022-12-22T08:03:06.460Z,2.00
2022-12-22T08:04:09.556Z,1.70
2022-12-22T08:05:11.525Z,1.73
2022-12-22T08:06:13.388Z,1.90
2022-12-22T08:07:15.187Z,2.23
2022-12-22T08:08:16.947Z,1.77
2022-12-22T08:09:21.703Z,2.35
2022-12-22T08:10:23.655Z,1.90
2022-12-22T08:11:25.555Z,2.27
2022-12-22T08:12:29.504Z,2.10
2022-12-22T08:13:31.584Z,1.95
2022-12-22T08:14:33.328Z,1.88
2022-12-22T08:15:35.037Z,2.08
2022-12-22T08:16:36.856Z,2.33
2022-12-22T08:17:39.292Z,1.80
2022-12-22T08:18:41.165Z,1.88
2022-12-22T08:19:42.896Z,2.47
2022-12-22T08:20:51.909Z,2.38
2022-12-22T08:21:53.703Z,2.50
2022-12-22T08:22:57.286Z,2.43
2022-12-22T08:23:59.095Z,2.17
2022-12-22T08:25:00.836Z,2.43
2022-12-22T08:26:23.811Z,3.05
2022-12-22T08:27:43.694Z,2.50
2022-12-22T08:28:56.623Z,2.20
2022-12-22T08:30:00.670Z,2.57
2022-12-22T08:31:03.803Z,3.03
2022-12-22T08:32:05.787Z,2.30
2022-12-22T08:33:07.604Z,2.00
2022-12-22T08:34:12.594Z,2.90
2022-12-22T08:35:14.430Z,2.07
2022-12-22T08:36:16.905Z,2.38
2022-12-22T08:37:22.582Z,2.20
2022-12-22T08:38:24.852Z,2.67
2022-12-22T08:39:31.072Z,2.50
2022-12-22T08:40:33.552Z,2.70
2022-12-22T08:41:51.443Z,2.60
2022-12-22T08:42:59.307Z,2.40
2022-12-22T09:00:40.462Z,2.47
2022-12-22T09:01:45.813Z,2.10
2022-12-22T09:02:47.854Z,2.83
2022-12-22T09:03:54.177Z,2.83
2022-12-22T09:04:55.908Z,2.93
2022-12-22T09:06:03.886Z,2.25
2022-12-22T09:07:05.736Z,2.73
2022-12-22T09:08:07.722Z,3.17
2022-12-22T09:09:12.041Z,2.77
2022-12-22T09:10:14.040Z,2.70
2022-12-22T09:11:17.127Z,2.65
2022-12-22T09:12:18.949Z,2.23
2022-12-22T09:13:20.711Z,2.05
2022-12-22T09:14:22.444Z,2.17
2022-12-22T09:15:24.254Z,2.37
2022-12-22T09:16:28.311Z,1.75
2022-12-22T09:17:30.139Z,1.67
2022-12-22T09:18:31.900Z,1.73
2022-12-22T09:19:33.639Z,2.22
2022-12-22T09:20:35.389Z,2.07
2022-12-22T09:21:37.253Z,2.63
2022-12-22T09:22:39.258Z,2.45
2022-12-22T09:23:41.187Z,2.30
2022-12-22T09:24:42.885Z,2.15
2022-12-22T09:25:44.653Z,1.90
2022-12-22T09:26:46.849Z,2.07
2022-12-22T09:27:48.641Z,2.38
2022-12-22T09:28:51.165Z,2.03
2022-12-22T09:29:53.019Z,1.60
2022-12-22T09:30:54.849Z,1.53
2022-12-22T09:31:56.633Z,1.67
2022-12-22T09:32:58.489Z,1.88
2022-12-22T09:34:00.642Z,1.92
2022-12-22T09:35:02.415Z,1.63
2022-12-22T09:36:08.871Z,1.77
2022-12-22T09:37:10.858Z,1.95
2022-12-22T09:38:12.652Z,1.88
2022-12-22T09:39:14.553Z,1.67
2022-12-22T09:40:16.348Z,2.00
2022-12-22T09:41:20.088Z,2.00
2022-12-22T09:42:23.964Z,1.90
2022-12-22T09:43:29.897Z,2.22
2022-12-22T09:44:41.673Z,1.80
2022-12-22T09:45:45.094Z,2.25
2022-12-22T09:46:47.376Z,1.85
2022-12-22T09:47:53.896Z,2.30
2022-12-22T09:48:56.207Z,2.10
2022-12-22T09:49:58.431Z,2.30
2022-12-22T09:51:01.833Z,1.67
2022-12-22T09:52:04.407Z,2.00
2022-12-22T09:53:11.254Z,2.10
2022-12-22T09:54:14.054Z,2.03
2022-12-22T09:55:24.803Z,1.40
2022-12-22T09:56:30.517Z,2.05
2022-12-22T09:57:32.951Z,2.10
2022-12-22T09:58:35.855Z,2.20
2022-12-22T09:59:37.647Z,1.90
2022-12-22T10:00:40.310Z,1.63
2022-12-22T10:01:57.440Z,2.38
2022-12-22T10:03:24.968Z,2.00
2022-12-22T10:04:49.552Z,1.87
2022-12-22T10:06:10.121Z,2.10
2022-12-22T10:07:39.241Z,1.97
2022-12-22T10:08:41.333Z,1.97
2022-12-22T10:09:50.189Z,2.00
2022-12-22T10:10:56.744Z,1.83
2022-12-22T10:12:04.288Z,2.83
2022-12-22T10:13:06.623Z,1.80
2022-12-22T10:14:10.913Z,1.60
2022-12-22T10:15:18.413Z,1.63
2022-12-22T10:16:28.826Z,1.60
2022-12-22T10:17:33.322Z,1.52
2022-12-22T10:18:35.435Z,1.83
2022-12-22T10:19:37.238Z,1.50
2022-12-22T10:20:39.912Z,1.67
2022-12-22T10:21:46.727Z,2.05
2022-12-22T10:22:53.480Z,1.73
2022-12-22T10:23:55.354Z,2.00
2022-12-22T10:25:00.337Z,1.70
2022-12-22T10:26:28.127Z,1.45
2022-12-22T10:27:42.925Z,1.52
2022-12-22T10:28:49.507Z,1.50
2022-12-22T10:29:51.714Z,2.30
2022-12-22T10:31:31.235Z,1.90
2022-12-22T10:32:33.121Z,1.55
2022-12-22T10:33:36.303Z,2.92
2022-12-22T10:35:02.833Z,2.17
2022-12-22T10:36:05.400Z,2.20
2022-12-22T10:37:07.517Z,2.17
2022-12-22T10:38:39.482Z,2.00
2022-12-22T10:39:41.248Z,1.85
2022-12-22T10:40:45.946Z,1.90
2022-12-22T10:41:49.879Z,1.80
2022-12-22T10:42:55.133Z,1.85
2022-12-22T10:44:01.460Z,1.75
2022-12-22T10:45:04.473Z,1.50
2022-12-22T10:46:07.229Z,1.20
2022-12-22T10:47:18.000Z,1.58
2022-12-22T10:48:35.321Z,1.58
2022-12-22T10:50:50.230Z,2.40
2022-12-22T10:52:12.023Z,1.55
2022-12-22T10:53:14.031Z,1.73
2022-12-22T10:54:34.008Z,1.75
2022-12-22T10:55:38.630Z,2.33
2022-12-22T10:56:40.434Z,1.83
2022-12-22T10:57:42.290Z,2.13
2022-12-22T10:58:56.059Z,1.60
2022-12-22T11:00:03.678Z,1.58
2022-12-22T11:01:05.731Z,1.55
2022-12-22T11:02:28.961Z,1.65
2022-12-22T11:03:31.973Z,1.20
2022-12-22T11:04:33.859Z,1.75
2022-12-22T11:05:35.755Z,1.73
2022-12-22T11:06:37.717Z,1.42
2022-12-22T11:07:42.277Z,1.67
2022-12-22T11:08:50.991Z,1.88
2022-12-22T11:09:53.523Z,2.15
2022-12-22T11:11:16.782Z,1.63
2022-12-22T11:12:39.919Z,1.50
2022-12-22T11:13:41.686Z,1.35
2022-12-22T11:15:08.119Z,1.40
2022-12-22T11:16:50.264Z,1.88
2022-12-22T11:17:57.976Z,1.85
2022-12-22T11:19:33.731Z,2.60
2022-12-22T11:20:47.534Z,1.42
2022-12-22T11:22:21.031Z,1.70
2022-12-22T11:23:34.286Z,1.40
2022-12-22T11:25:00.766Z,1.45
2022-12-22T11:26:51.460Z,1.58
2022-12-22T11:28:14.876Z,2.15
2022-12-22T11:29:45.179Z,1.92
2022-12-22T11:31:18.074Z,1.42
2022-12-22T11:32:41.747Z,1.65
2022-12-22T11:33:43.561Z,1.63
2022-12-22T11:34:51.591Z,1.73
2022-12-22T11:36:06.012Z,1.40
2022-12-22T11:37:26.524Z,1.67
2022-12-22T11:39:04.454Z,1.27
2022-12-22T11:40:36.089Z,1.25
2022-12-22T11:41:56.977Z,1.10
2022-12-22T11:43:40.707Z,1.30
2022-12-22T11:45:02.998Z,1.63
2022-12-22T11:46:15.381Z,1.55
2022-12-22T11:47:32.259Z,1.45
2022-12-22T11:48:57.980Z,1.40
2022-12-22T11:51:01.237Z,1.40
2022-12-22T11:52:03.454Z,1.00
2022-12-22T11:53:23.148Z,1.30
2022-12-22T11:54:41.151Z,1.90
2022-12-22T11:55:53.120Z,1.60
2022-12-22T11:57:04.953Z,1.10
2022-12-22T11:58:21.831Z,1.17
2022-12-22T11:59:26.562Z,1.05
2022-12-22T12:01:11.792Z,1.10
2022-12-22T12:02:24.112Z,1.20
2022-12-22T12:03:44.891Z,0.75
2022-12-22T12:04:55.231Z,0.80
2022-12-22T12:06:13.602Z,0.82
2022-12-22T12:07:23.532Z,1.00
2022-12-22T12:08:45.142Z,0.80
2022-12-22T12:10:12.792Z,1.10
2022-12-22T12:11:23.441Z,1.10
2022-12-22T12:13:05.955Z,1.00
2022-12-22T12:14:13.313Z,0.80
2022-12-22T12:15:37.995Z,1.10
2022-12-22T12:16:53.258Z,1.35
2022-12-22T12:18:16.189Z,1.00
2022-12-22T12:19:44.377Z,1.02
2022-12-22T12:20:49.328Z,0.90
2022-12-22T12:22:00.144Z,0.93
2022-12-22T12:23:26.791Z,0.85
2022-12-22T12:24:38.487Z,1.02
2022-12-22T12:25:46.033Z,1.00
2022-12-22T12:27:25.507Z,0.75
2022-12-22T12:28:38.215Z,1.02
2022-12-22T12:30:13.338Z,0.80
2022-12-22T12:31:15.030Z,0.90
2022-12-22T12:32:28.077Z,1.00
2022-12-22T12:34:03.039Z,0.93
2022-12-22T12:35:32.099Z,1.02
2022-12-22T12:37:00.963Z,1.27
2022-12-22T12:39:05.501Z,1.25
2022-12-22T12:40:16.534Z,0.90
2022-12-22T12:41:30.392Z,0.80
2022-12-22T12:42:37.683Z,0.77
2022-12-22T12:43:41.245Z,1.23
2022-12-22T12:44:43.405Z,0.70
2022-12-22T12:45:47.478Z,0.70
2022-12-22T12:46:52.568Z,1.38
2022-12-22T12:48:14.783Z,1.30
2022-12-22T12:49:36.552Z,0.90
2022-12-22T12:50:38.392Z,0.80
2022-12-22T12:51:48.936Z,0.70
2022-12-22T12:52:50.837Z,0.90
2022-12-22T12:54:23.802Z,0.93
2022-12-22T12:55:32.329Z,1.02
2022-12-22T12:57:11.755Z,0.82
2022-12-22T12:58:39.284Z,1.10
2022-12-22T12:59:40.992Z,0.60
2022-12-22T13:00:49.882Z,0.75
2022-12-22T13:01:57.996Z,0.90
2022-12-22T13:03:16.375Z,0.90
2022-12-22T13:05:11.374Z,1.10
2022-12-22T13:06:51.682Z,0.90
2022-12-22T13:08:21.098Z,0.70
2022-12-22T13:10:53.561Z,1.13
2022-12-22T13:12:13.132Z,1.20
2022-12-22T13:13:24.729Z,0.80
2022-12-22T13:14:55.472Z,1.40
2022-12-22T13:16:00.184Z,1.33
2022-12-22T13:17:34.646Z,0.80
2022-12-22T13:18:49.764Z,1.00
2022-12-22T13:19:51.927Z,1.08
2022-12-22T13:21:18.869Z,1.27
2022-12-22T13:22:19.238Z,1.10
2022-12-22T13:23:21.174Z,1.23
2022-12-22T13:24:32.185Z,1.25
2022-12-22T13:25:45.412Z,0.85
2022-12-22T13:26:50.606Z,0.60
2022-12-22T13:27:52.836Z,0.90
2022-12-22T13:29:02.035Z,0.80
2022-12-22T13:30:08.219Z,0.90
2022-12-22T13:31:39.435Z,0.80
2022-12-22T13:32:42.050Z,0.70
2022-12-22T13:33:45.177Z,1.00
2022-12-22T13:36:31.217Z,0.73
2022-12-22T13:37:40.984Z,0.82
2022-12-22T13:38:42.728Z,0.90
2022-12-22T13:40:05.579Z,0.95
2022-12-22T13:41:27.766Z,0.80
2022-12-22T13:42:31.232Z,0.80
2022-12-22T13:43:33.525Z,0.80
2022-12-22T13:44:35.368Z,0.80
2022-12-22T13:45:41.314Z,0.73
2022-12-22T13:46:43.833Z,0.70
2022-12-22T13:47:47.263Z,0.70
2022-12-22T13:48:51.214Z,0.85
2022-12-22T13:50:08.402Z,0.88
2022-12-22T13:51:20.789Z,1.10
2022-12-22T13:52:23.801Z,1.02
2022-12-22T13:54:06.955Z,0.90
2022-12-22T13:54:56.774Z,0.60
2022-12-22T13:55:58.936Z,1.05
2022-12-22T13:57:03.314Z,0.70
2022-12-22T13:58:18.954Z,1.08
2022-12-22T13:59:29.454Z,1.30
2022-12-22T14:00:31.525Z,1.25
2022-12-22T14:01:33.522Z,0.90
2022-12-22T14:02:35.594Z,0.93
2022-12-22T14:04:04.120Z,0.88
2022-12-22T14:05:12.716Z,1.63
2022-12-22T14:06:34.652Z,1.27
2022-12-22T14:07:36.616Z,1.77
2022-12-22T14:08:38.392Z,1.02
2022-12-22T14:09:50.849Z,1.02
2022-12-22T14:10:53.884Z,1.13
2022-12-22T14:12:20.594Z,0.82
2022-12-22T14:13:30.385Z,1.30
2022-12-22T14:14:36.088Z,1.00
2022-12-22T14:15:37.888Z,0.90
2022-12-22T14:16:45.770Z,1.08
2022-12-22T14:17:52.795Z,1.08
2022-12-22T14:18:55.109Z,1.10
2022-12-22T14:19:59.436Z,1.15
2022-12-22T14:21:01.713Z,1.30
2022-12-22T14:22:17.601Z,1.38
2022-12-22T14:23:27.658Z,1.23
2022-12-22T14:24:38.255Z,1.23
2022-12-22T14:25:44.158Z,0.93
2022-12-22T14:26:46.638Z,1.40
2022-12-22T14:27:54.581Z,1.45
2022-12-22T14:28:57.383Z,1.20
2022-12-22T14:30:02.770Z,1.52
2022-12-22T14:31:06.599Z,1.73
2022-12-22T14:32:29.180Z,1.33
2022-12-22T14:33:33.636Z,1.63
2022-12-22T14:34:35.669Z,1.25
2022-12-22T14:35:37.422Z,1.42
2022-12-22T14:36:41.843Z,1.58
2022-12-22T14:37:43.731Z,1.80
2022-12-22T14:38:48.156Z,2.15
2022-12-22T14:39:55.905Z,1.23
2022-12-22T14:40:58.188Z,1.83
2022-12-22T14:42:14.436Z,1.60
2022-12-22T14:43:19.190Z,1.35
2022-12-22T14:44:31.400Z,2.65
2022-12-22T14:45:33.672Z,2.00
2022-12-22T14:46:39.127Z,2.75
2022-12-22T14:47:41.205Z,1.52
2022-12-22T14:48:46.980Z,1.45
2022-12-22T14:50:02.925Z,1.55
2022-12-22T14:51:05.851Z,1.50
2022-12-22T14:52:14.558Z,1.48
2022-12-22T14:53:27.074Z,1.50
2022-12-22T14:54:28.911Z,1.80
2022-12-22T14:55:41.177Z,1.67
2022-12-22T14:56:51.365Z,1.50
2022-12-22T14:57:58.913Z,1.48
2022-12-22T14:59:23.204Z,1.75
2022-12-22T15:00:25.214Z,1.90
2022-12-22T15:01:28.866Z,1.60
2022-12-22T15:02:39.451Z,1.60
2022-12-22T15:03:43.694Z,1.52
2022-12-22T15:04:45.776Z,1.52
2022-12-22T15:05:47.749Z,1.45
2022-12-22T15:06:50.394Z,1.50
2022-12-22T15:08:09.811Z,2.10
2022-12-22T15:09:14.527Z,1.60
2022-12-22T15:10:17.256Z,1.77
2022-12-22T15:11:21.773Z,1.75
2022-12-22T15:12:23.793Z,1.42
2022-12-22T15:13:25.637Z,2.20
2022-12-22T15:14:36.724Z,2.08
2022-12-22T15:15:40.540Z,1.70
2022-12-22T15:16:43.739Z,1.65
2022-12-22T15:17:48.302Z,1.73
2022-12-22T15:18:52.295Z,2.08
2022-12-22T15:20:00.366Z,1.70
2022-12-22T15:21:02.898Z,1.58
2022-12-22T15:22:07.559Z,1.60
2022-12-22T15:23:14.855Z,1.65
2022-12-22T15:24:18.435Z,1.70
2022-12-22T15:25:22.328Z,1.77
2022-12-22T15:26:24.090Z,1.20
2022-12-22T15:27:25.936Z,2.10
2022-12-22T15:28:27.789Z,2.17
2022-12-22T15:29:29.652Z,1.90
2022-12-22T15:30:31.545Z,2.38
2022-12-22T15:31:33.620Z,2.40
2022-12-22T15:32:38.026Z,1.85
2022-12-22T15:33:40.684Z,1.95
2022-12-22T15:34:43.097Z,2.30
2022-12-22T15:35:45.635Z,2.00
2022-12-22T15:36:47.760Z,2.63
2022-12-22T15:37:49.550Z,2.80
2022-12-22T15:38:51.363Z,1.92
2022-12-22T15:39:53.267Z,1.63
2022-12-22T15:40:54.984Z,2.45
2022-12-22T15:41:56.776Z,1.83
2022-12-22T15:42:58.527Z,1.75
2022-12-22T15:44:00.320Z,1.67
2022-12-22T15:45:02.157Z,1.75
2022-12-22T15:46:06.276Z,1.67
2022-12-22T15:47:11.828Z,2.15
2022-12-22T15:48:25.652Z,1.42
2022-12-22T15:49:29.567Z,1.50
2022-12-22T15:50:39.233Z,1.55
2022-12-22T15:51:41.447Z,1.60
2022-12-22T15:52:48.717Z,1.70
2022-12-22T15:53:51.110Z,1.92
2022-12-22T15:54:53.025Z,2.17
2022-12-22T15:55:58.517Z,2.47